Time;durP1;ratioP1;P1;durP2;ratioP2;P2;SDS_P1;SDS_P2;PMS_P1;PMS_P2;Temp;Humidity;BMP_temperature;BMP_pressure;BME280_temperature;BME280_humidity;BME280_pressure;Samples;Min_cycle;Max_cycle;Signal;HPM_P1;HPM_P2
2024/01/28 05:05:54;;;;;;;0.40;0.40;;;-0.80;99.90;;;;;;5779359;23;20301;-64
2024/01/28 05:08:20;;;;;;;0.40;0.40;;;-0.80;99.90;;;;;;4974432;28;20258;-64
2024/01/28 05:10:47;;;;;;;0.30;0.30;;;-0.80;99.90;;;;;;4974689;28;20183;-65
2024/01/28 05:13:12;;;;;;;0.50;0.50;;;-0.90;99.90;;;;;;4978498;28;20179;-64
2024/01/28 05:15:38;;;;;;;0.40;0.40;;;-0.90;99.90;;;;;;4972647;28;20200;-64
2024/01/28 05:18:05;;;;;;;0.40;0.40;;;-0.90;99.90;;;;;;4974494;28;20208;-64
2024/01/28 05:20:30;;;;;;;0.40;0.40;;;-0.90;99.90;;;;;;4974324;28;20533;-64
2024/01/28 05:22:59;;;;;;;0.43;0.43;;;-0.90;99.90;;;;;;4974419;28;20167;-65
2024/01/28 05:25:26;;;;;;;0.50;0.50;;;-0.90;99.90;;;;;;4973894;28;20235;-64
2024/01/28 05:27:51;;;;;;;0.40;0.40;;;-0.90;99.90;;;;;;4974170;28;20203;-66
2024/01/28 05:30:17;;;;;;;0.40;0.40;;;-0.90;99.90;;;;;;4974068;28;20203;-64
2024/01/28 05:32:43;;;;;;;0.40;0.40;;;-0.90;99.90;;;;;;4993132;28;20187;-65
2024/01/28 05:35:08;;;;;;;0.40;0.40;;;-0.90;99.90;;;;;;4996708;28;20186;-64
2024/01/28 05:37:36;;;;;;;0.60;0.60;;;-1.00;99.90;;;;;;4997057;28;20413;-64
2024/01/28 05:40:02;;;;;;;0.60;0.60;;;-1.00;99.90;;;;;;4997576;28;20407;-64
2024/01/28 05:42:28;;;;;;;0.40;0.40;;;-1.00;99.90;;;;;;4997812;28;20175;-65
2024/01/28 05:44:53;;;;;;;0.53;0.53;;;-1.00;99.90;;;;;;4996985;28;20474;-65
2024/01/28 05:47:19;;;;;;;0.30;0.30;;;-1.00;99.90;;;;;;4997356;28;20191;-64
2024/01/28 05:49:44;;;;;;;0.50;0.50;;;-1.10;99.90;;;;;;4997180;28;20624;-64
2024/01/28 05:52:11;;;;;;;0.40;0.40;;;-1.10;99.90;;;;;;4997185;28;20181;-63
2024/01/28 05:54:41;;;;;;;0.50;0.50;;;-1.10;99.90;;;;;;4997026;28;20171;-64
2024/01/28 05:57:07;;;;;;;0.38;0.38;;;-1.10;99.90;;;;;;4996261;28;20194;-64
2024/01/28 05:59:33;;;;;;;0.50;0.50;;;-1.10;99.90;;;;;;4995956;28;20203;-65
2024/01/28 06:01:59;;;;;;;0.30;0.30;;;-1.10;99.90;;;;;;4979085;28;20180;-65
2024/01/28 06:04:24;;;;;;;1.17;1.07;;;-1.10;99.90;;;;;;4974250;28;20183;-71
2024/01/28 06:06:50;;;;;;;0.40;0.40;;;-1.10;99.90;;;;;;4976534;28;20210;-65
2024/01/28 06:09:16;;;;;;;0.30;0.30;;;-1.10;99.90;;;;;;4994164;28;20242;-64
2024/01/28 06:11:43;;;;;;;0.40;0.40;;;-1.10;99.90;;;;;;4997091;28;20688;-65
2024/01/28 06:14:10;;;;;;;0.30;0.30;;;-1.10;99.90;;;;;;4995439;28;20184;-64
2024/01/28 06:16:35;;;;;;;0.40;0.40;;;-1.10;99.90;;;;;;4996834;28;20282;-65
2024/01/28 06:19:01;;;;;;;0.40;0.40;;;-1.10;99.90;;;;;;4997278;28;20292;-63
2024/01/28 06:21:28;;;;;;;0.50;0.50;;;-1.00;99.90;;;;;;4996777;28;20167;-64
2024/01/28 06:23:54;;;;;;;0.40;0.40;;;-1.00;99.90;;;;;;4995324;28;20166;-65
2024/01/28 06:26:20;;;;;;;0.30;0.30;;;-1.00;99.90;;;;;;4995155;28;20337;-65
2024/01/28 06:28:46;;;;;;;0.40;0.40;;;-1.00;99.90;;;;;;4996526;28;20250;-65
2024/01/28 06:31:13;;;;;;;0.40;0.40;;;-1.00;99.90;;;;;;4997480;28;20413;-65
2024/01/28 06:33:39;;;;;;;0.40;0.40;;;-1.00;99.90;;;;;;4997030;28;20182;-64
2024/01/28 06:36:05;;;;;;;0.60;0.60;;;-1.00;99.90;;;;;;4996206;28;20298;-64
2024/01/28 06:38:31;;;;;;;0.30;0.30;;;-1.00;99.90;;;;;;4995356;28;20288;-64
2024/01/28 06:40:57;;;;;;;0.50;0.50;;;-1.00;99.90;;;;;;4996593;28;20677;-65
2024/01/28 06:43:25;;;;;;;0.50;0.50;;;-1.10;99.90;;;;;;4996313;28;20605;-64
2024/01/28 06:45:53;;;;;;;0.60;0.60;;;-1.10;99.90;;;;;;4994673;28;20195;-64
2024/01/28 06:48:18;;;;;;;0.50;0.50;;;-1.10;99.90;;;;;;4996112;28;20588;-64
2024/01/28 06:50:45;;;;;;;0.47;0.47;;;-1.10;99.90;;;;;;4994754;28;20267;-64
2024/01/28 06:53:12;;;;;;;0.40;0.40;;;-1.10;99.90;;;;;;4996321;28;20265;-64
2024/01/28 06:55:37;;;;;;;0.40;0.40;;;-1.10;99.90;;;;;;4995767;28;20561;-64
2024/01/28 06:58:03;;;;;;;0.40;0.40;;;-1.10;99.90;;;;;;4996016;28;20201;-64
2024/01/28 07:00:29;;;;;;;0.50;0.50;;;-1.00;99.90;;;;;;4996219;28;20535;-65
2024/01/28 07:02:55;;;;;;;0.40;0.40;;;-1.00;99.90;;;;;;4996395;28;20415;-62
2024/01/28 07:05:21;;;;;;;0.40;0.40;;;-1.00;99.90;;;;;;4994833;28;20196;-63
2024/01/28 07:07:47;;;;;;;0.40;0.40;;;-1.10;99.90;;;;;;4989032;28;20344;-65
2024/01/28 07:10:12;;;;;;;0.40;0.40;;;-1.00;99.90;;;;;;4976694;28;20247;-65
2024/01/28 07:12:39;;;;;;;0.30;0.30;;;-1.00;99.90;;;;;;4975242;28;20182;-68
2024/01/28 07:15:05;;;;;;;0.40;0.40;;;-0.90;99.90;;;;;;4976291;28;20237;-66
2024/01/28 07:17:33;;;;;;;0.40;0.40;;;-0.90;99.90;;;;;;4976658;28;20180;-66
2024/01/28 07:19:59;;;;;;;0.38;0.38;;;-0.90;99.90;;;;;;4974526;28;20652;-68
2024/01/28 07:22:25;;;;;;;0.30;0.30;;;-0.90;99.90;;;;;;4976611;28;20260;-63
2024/01/28 07:24:50;;;;;;;0.40;0.40;;;-0.80;99.90;;;;;;4975709;28;20180;-63
2024/01/28 07:27:16;;;;;;;0.40;0.40;;;-0.60;99.90;;;;;;4978037;28;20199;-64
2024/01/28 07:29:43;;;;;;;0.40;0.40;;;-0.30;99.90;;;;;;4980256;28;20195;-64
2024/01/28 07:32:13;;;;;;;0.50;0.50;;;-0.10;99.90;;;;;;4979890;28;20242;-63
2024/01/28 07:34:39;;;;;;;0.40;0.40;;;0.10;99.90;;;;;;4979386;28;20183;-63
2024/01/28 07:37:05;;;;;;;0.30;0.30;;;0.40;99.90;;;;;;4979264;28;20206;-66
2024/01/28 07:39:32;;;;;;;0.40;0.40;;;0.70;99.90;;;;;;4980363;28;20192;-63
2024/01/28 07:42:01;;;;;;;0.50;0.50;;;1.00;99.90;;;;;;4980401;28;20600;-63
2024/01/28 07:44:27;;;;;;;0.30;0.30;;;1.40;99.90;;;;;;4976828;28;20176;-63
2024/01/28 07:46:53;;;;;;;0.40;0.40;;;1.70;99.90;;;;;;4975751;28;20758;-64
2024/01/28 07:49:19;;;;;;;0.40;0.40;;;2.10;99.90;;;;;;4975887;28;20641;-64
2024/01/28 07:51:45;;;;;;;0.50;0.50;;;2.40;99.90;;;;;;4974787;28;20188;-64
2024/01/28 07:54:11;;;;;;;0.50;0.50;;;2.80;99.90;;;;;;4975866;28;20175;-65
2024/01/28 07:56:37;;;;;;;0.30;0.30;;;3.00;99.90;;;;;;4975787;28;20296;-65
2024/01/28 07:59:03;;;;;;;0.50;0.50;;;3.30;99.90;;;;;;4976079;28;20277;-66
2024/01/28 08:01:30;;;;;;;0.30;0.30;;;3.70;99.90;;;;;;4976239;28;20974;-65
2024/01/28 08:03:56;;;;;;;0.52;0.52;;;4.00;99.90;;;;;;4974647;28;20175;-65
2024/01/28 08:06:22;;;;;;;0.30;0.30;;;4.30;99.90;;;;;;4975145;28;20211;-65
2024/01/28 08:08:48;;;;;;;0.30;0.30;;;4.50;99.90;;;;;;4989274;28;20174;-66
2024/01/28 08:11:14;;;;;;;0.40;0.40;;;4.60;99.90;;;;;;4993363;28;20172;-66
2024/01/28 08:13:40;;;;;;;0.30;0.30;;;4.60;99.90;;;;;;4994675;28;20178;-65
2024/01/28 08:16:06;;;;;;;0.35;0.35;;;4.60;99.90;;;;;;4994092;28;20688;-65
2024/01/28 08:18:32;;;;;;;0.30;0.30;;;4.60;99.90;;;;;;4994623;28;20199;-65
2024/01/28 08:20:58;;;;;;;0.57;0.57;;;4.80;99.90;;;;;;4994426;28;20416;-64
2024/01/28 08:23:25;;;;;;;0.30;0.30;;;4.80;99.90;;;;;;4994202;28;20182;-65
2024/01/28 08:25:51;;;;;;;0.40;0.40;;;4.70;99.90;;;;;;4982200;28;20439;-66
2024/01/28 08:28:17;;;;;;;0.30;0.30;;;4.80;99.90;;;;;;4973766;28;20179;-66
2024/01/28 08:30:44;;;;;;;0.30;0.30;;;5.00;99.90;;;;;;4974461;28;20175;-66
2024/01/28 08:33:09;;;;;;;0.38;0.38;;;5.30;99.90;;;;;;4971659;28;20259;-66
2024/01/28 08:35:37;;;;;;;1.57;0.60;;;5.80;99.90;;;;;;4971684;28;20200;-65
2024/01/28 08:38:03;;;;;;;0.30;0.30;;;6.40;99.90;;;;;;4972640;28;20204;-66
2024/01/28 08:40:29;;;;;;;0.50;0.50;;;7.30;99.90;;;;;;4972613;28;20182;-67
2024/01/28 08:42:55;;;;;;;0.30;0.27;;;8.10;99.90;;;;;;4973707;28;20772;-69
2024/01/28 08:45:21;;;;;;;0.30;0.30;;;9.00;99.90;;;;;;4983702;28;20261;-68
2024/01/28 08:47:47;;;;;;;0.40;0.40;;;9.90;99.90;;;;;;4973750;28;20383;-65
2024/01/28 08:50:12;;;;;;;0.30;0.30;;;10.70;99.90;;;;;;4987749;28;20666;-70
2024/01/28 08:52:38;;;;;;;0.30;0.30;;;11.50;97.60;;;;;;4993355;28;20172;-66
2024/01/28 08:55:04;;;;;;;0.30;0.30;;;12.10;95.80;;;;;;4993659;28;20185;-66
2024/01/28 08:57:31;;;;;;;0.30;0.30;;;12.50;95.30;;;;;;4993425;28;20175;-64
2024/01/28 08:59:57;;;;;;;0.50;0.40;;;12.90;93.40;;;;;;4992377;28;20406;-72
2024/01/28 09:02:22;;;;;;;0.30;0.30;;;13.20;93.90;;;;;;4986608;28;21127;-67
2024/01/28 09:04:48;;;;;;;0.30;0.30;;;13.60;92.40;;;;;;4978594;28;20386;-65
2024/01/28 09:07:13;;;;;;;0.30;0.20;;;13.90;91.80;;;;;;4976949;28;20243;-66
2024/01/28 09:09:39;;;;;;;0.30;0.30;;;14.10;90.90;;;;;;4972881;28;20243;-66
2024/01/28 09:12:05;;;;;;;0.30;0.30;;;14.40;90.00;;;;;;4974380;28;20195;-66
2024/01/28 09:14:30;;;;;;;0.40;0.40;;;14.40;90.00;;;;;;4974179;28;20533;-65
2024/01/28 09:16:56;;;;;;;0.73;0.73;;;14.60;90.00;;;;;;4975573;28;20494;-65
2024/01/28 09:19:22;;;;;;;0.43;0.30;;;14.60;87.70;;;;;;4972288;28;20200;-65
2024/01/28 09:21:49;;;;;;;0.30;0.20;;;14.60;86.90;;;;;;4972544;28;20175;-68
2024/01/28 09:24:15;;;;;;;0.30;0.30;;;14.70;87.20;;;;;;4973050;28;20232;-64
2024/01/28 09:26:40;;;;;;;0.30;0.30;;;14.90;86.60;;;;;;4973720;28;20818;-65
2024/01/28 09:29:06;;;;;;;0.30;0.20;;;15.10;85.60;;;;;;4972583;28;20647;-64
2024/01/28 09:31:32;;;;;;;0.30;0.30;;;15.20;84.50;;;;;;4972110;28;20236;-64
2024/01/28 09:33:58;;;;;;;0.40;0.40;;;15.30;84.50;;;;;;4972075;28;20244;-66
2024/01/28 09:36:23;;;;;;;0.40;0.40;;;15.40;85.10;;;;;;4971593;28;20227;-66
2024/01/28 09:38:49;;;;;;;0.30;0.23;;;15.60;83.40;;;;;;4969633;28;20714;-67
2024/01/28 09:41:37;;;;;;;0.30;0.30;;;15.70;83.70;;;;;;4971235;28;20167;-64
2024/01/28 09:44:03;;;;;;;1.13;1.03;;;15.80;84.00;;;;;;4971486;28;20177;-66
2024/01/28 09:46:30;;;;;;;0.30;0.30;;;15.90;84.60;;;;;;4971502;28;20478;-66
2024/01/28 09:48:56;;;;;;;0.40;0.30;;;16.20;82.60;;;;;;4972010;28;20514;-68
2024/01/28 09:51:24;;;;;;;0.30;0.27;;;16.50;82.30;;;;;;4972027;28;20905;-67
2024/01/28 09:53:49;;;;;;;1.07;0.70;;;16.80;82.20;;;;;;4973920;28;20543;-66
2024/01/28 09:56:16;;;;;;;0.70;0.40;;;17.00;80.20;;;;;;4972289;28;20442;-69
2024/01/28 09:58:43;;;;;;;0.80;0.80;;;16.90;79.40;;;;;;4974206;28;20192;-67
2024/01/28 10:01:13;;;;;;;0.30;0.30;;;17.00;80.30;;;;;;4974005;28;20382;-66
2024/01/28 10:03:39;;;;;;;0.43;0.43;;;17.20;77.90;;;;;;4973853;28;20457;-66
2024/01/28 10:06:05;;;;;;;0.30;0.20;;;17.10;78.80;;;;;;4973518;28;20856;-65
2024/01/28 10:08:31;;;;;;;0.50;0.50;;;17.10;75.70;;;;;;4973900;28;20749;-70
2024/01/28 10:11:01;;;;;;;0.40;0.40;;;17.20;76.50;;;;;;4973843;28;20905;-66
2024/01/28 10:13:27;;;;;;;0.30;0.30;;;17.30;76.60;;;;;;4973866;28;20379;-68
2024/01/28 10:15:56;;;;;;;0.63;0.63;;;17.20;76.10;;;;;;4961570;28;20443;-65
2024/01/28 10:18:23;;;;;;;0.33;0.33;;;17.40;76.60;;;;;;4954433;28;20561;-67
2024/01/28 10:20:49;;;;;;;0.30;0.27;;;17.60;76.40;;;;;;4957320;28;20430;-66
2024/01/28 10:23:15;;;;;;;0.53;0.53;;;17.70;76.20;;;;;;4957218;28;20862;-66
2024/01/28 10:25:41;;;;;;;0.30;0.20;;;17.90;75.80;;;;;;4956874;28;20411;-67
2024/01/28 10:28:08;;;;;;;0.40;0.40;;;18.10;74.10;;;;;;4956990;29;20454;-68
2024/01/28 10:30:34;;;;;;;0.30;0.30;;;17.90;74.80;;;;;;4957897;29;20177;-65
2024/01/28 10:33:00;;;;;;;0.40;0.40;;;17.80;74.40;;;;;;4956528;29;20471;-66
2024/01/28 10:35:25;;;;;;;0.30;0.30;;;17.70;76.50;;;;;;4957339;29;20440;-68
2024/01/28 10:37:55;;;;;;;0.30;0.30;;;17.60;75.60;;;;;;4957691;28;20232;-68
2024/01/28 10:40:27;;;;;;;0.30;0.30;;;17.50;75.40;;;;;;4957911;28;20173;-67
2024/01/28 10:42:57;;;;;;;0.30;0.30;;;17.60;75.30;;;;;;4957596;28;20419;-66
2024/01/28 10:45:24;;;;;;;0.30;0.30;;;17.70;74.10;;;;;;4957341;29;20433;-65
2024/01/28 10:47:53;;;;;;;0.30;0.30;;;17.60;73.30;;;;;;4957473;28;20409;-63
2024/01/28 10:50:21;;;;;;;1.30;0.50;;;17.50;73.90;;;;;;4957463;28;20508;-63
2024/01/28 10:52:48;;;;;;;0.30;0.30;;;17.50;72.40;;;;;;4957579;28;20478;-65
2024/01/28 10:55:18;;;;;;;0.90;0.60;;;17.50;72.20;;;;;;4957164;28;20468;-66
2024/01/28 10:57:45;;;;;;;0.30;0.30;;;17.50;71.90;;;;;;4957430;28;20409;-65
2024/01/28 11:00:13;;;;;;;0.30;0.30;;;17.50;71.70;;;;;;4956104;29;20395;-64
2024/01/28 11:02:39;;;;;;;0.40;0.40;;;17.30;71.90;;;;;;4957293;28;20906;-65
2024/01/28 11:05:06;;;;;;;0.30;0.30;;;16.80;71.30;;;;;;4956895;28;20413;-64
2024/01/28 11:07:32;;;;;;;0.30;0.20;;;16.70;70.90;;;;;;4955693;29;20502;-66
2024/01/28 11:10:01;;;;;;;0.30;0.20;;;16.70;70.60;;;;;;4956074;29;20904;-65
2024/01/28 11:12:30;;;;;;;0.30;0.20;;;16.80;69.40;;;;;;4957093;28;20188;-65
2024/01/28 11:15:00;;;;;;;0.30;0.30;;;16.70;68.10;;;;;;4956952;28;20484;-67
2024/01/28 11:17:37;;;;;;;0.30;0.30;;;16.40;69.10;;;;;;4955941;29;20909;-65
2024/01/28 11:20:10;;;;;;;0.30;0.30;;;16.30;69.50;;;;;;4955770;29;20471;-62
2024/01/28 11:22:48;;;;;;;0.30;0.20;;;16.30;69.80;;;;;;4957146;28;20399;-64
2024/01/28 11:25:20;;;;;;;0.30;0.20;;;16.10;69.50;;;;;;4956745;28;20491;-64
2024/01/28 11:27:47;;;;;;;0.40;0.40;;;15.60;69.10;;;;;;4957019;28;20382;-65
2024/01/28 11:30:13;;;;;;;0.30;0.30;;;15.00;70.10;;;;;;4957124;28;20375;-64
2024/01/28 11:32:39;;;;;;;0.30;0.30;;;14.30;72.90;;;;;;4955706;29;20394;-65
2024/01/28 11:35:06;;;;;;;0.30;0.30;;;13.60;73.00;;;;;;4956497;28;20939;-64
2024/01/28 11:37:38;;;;;;;0.30;0.30;;;12.90;75.60;;;;;;4956496;28;20406;-65
2024/01/28 11:40:07;;;;;;;0.60;0.50;;;12.50;77.30;;;;;;4956849;28;20471;-65
2024/01/28 11:42:33;;;;;;;0.33;0.33;;;12.30;78.30;;;;;;4955429;29;20443;-66
2024/01/28 11:45:00;;;;;;;0.30;0.20;;;12.10;78.80;;;;;;4956234;29;20445;-67
2024/01/28 11:47:25;;;;;;;0.30;0.30;;;11.80;78.20;;;;;;4956689;28;20653;-62
2024/01/28 11:49:52;;;;;;;0.30;0.30;;;11.60;78.70;;;;;;4956419;29;20429;-64
2024/01/28 11:52:17;;;;;;;0.30;0.20;;;11.50;79.30;;;;;;4956430;28;20566;-64
2024/01/28 11:54:44;;;;;;;0.30;0.30;;;11.40;79.70;;;;;;4956258;28;20415;-64
2024/01/28 11:57:10;;;;;;;0.30;0.30;;;11.30;80.40;;;;;;4956360;28;20442;-66
2024/01/28 11:59:38;;;;;;;0.30;0.30;;;11.20;82.00;;;;;;4956280;29;20575;-64
2024/01/28 12:02:04;;;;;;;0.60;0.60;;;11.20;80.90;;;;;;4956197;28;20415;-63
2024/01/28 12:04:31;;;;;;;0.60;0.50;;;11.10;80.80;;;;;;4955844;28;20428;-65
2024/01/28 12:06:56;;;;;;;0.40;0.40;;;11.10;81.20;;;;;;4956169;29;20454;-64
2024/01/28 12:09:22;;;;;;;0.30;0.30;;;11.10;82.40;;;;;;4956257;29;20467;-63
2024/01/28 12:11:48;;;;;;;0.30;0.27;;;11.10;81.80;;;;;;4956213;29;20179;-65
2024/01/28 12:14:14;;;;;;;0.30;0.30;;;11.10;82.40;;;;;;4955828;28;20629;-65
2024/01/28 12:16:40;;;;;;;0.60;0.60;;;11.10;82.60;;;;;;4955797;29;20426;-62
2024/01/28 12:19:11;;;;;;;0.30;0.30;;;11.10;82.80;;;;;;4956003;29;20460;-65
2024/01/28 12:21:38;;;;;;;0.70;0.70;;;11.20;83.80;;;;;;4955975;28;20179;-61
2024/01/28 12:24:04;;;;;;;0.30;0.30;;;11.20;84.00;;;;;;4955993;28;20937;-64
2024/01/28 12:26:32;;;;;;;0.30;0.30;;;11.10;85.50;;;;;;4954182;29;20478;-62
2024/01/28 12:28:59;;;;;;;0.30;0.30;;;11.10;85.40;;;;;;4955827;28;20418;-63
2024/01/28 12:31:25;;;;;;;0.30;0.30;;;11.10;87.80;;;;;;4955673;28;20423;-63
2024/01/28 12:33:50;;;;;;;0.30;0.30;;;11.20;87.80;;;;;;4955850;28;20423;-63
2024/01/28 12:36:16;;;;;;;0.30;0.30;;;11.20;87.50;;;;;;4955338;29;20442;-64
2024/01/28 12:38:42;;;;;;;0.30;0.30;;;11.30;85.30;;;;;;4955792;29;20296;-63
2024/01/28 12:41:09;;;;;;;0.30;0.30;;;11.30;85.30;;;;;;4955305;28;20176;-65
2024/01/28 12:43:37;;;;;;;0.30;0.30;;;11.40;86.20;;;;;;4955682;28;20534;-65
2024/01/28 12:46:03;;;;;;;0.30;0.30;;;11.40;87.20;;;;;;4955197;28;20426;-64
2024/01/28 12:48:29;;;;;;;0.40;0.40;;;11.40;88.30;;;;;;4955542;28;20389;-63
2024/01/28 12:50:55;;;;;;;0.30;0.30;;;11.50;87.40;;;;;;4955565;28;20421;-62
2024/01/28 12:53:20;;;;;;;0.30;0.30;;;11.60;87.60;;;;;;4955465;29;20692;-62
2024/01/28 12:55:46;;;;;;;0.30;0.30;;;11.60;86.50;;;;;;4955180;29;20199;-65
2024/01/28 12:58:12;;;;;;;0.40;0.37;;;11.60;86.40;;;;;;4955456;28;20210;-64
2024/01/28 13:00:39;;;;;;;1.07;0.97;;;11.70;86.20;;;;;;4955254;29;20442;-61
2024/01/28 13:03:08;;;;;;;0.40;0.40;;;11.70;86.70;;;;;;4955501;28;20536;-63
2024/01/28 13:05:33;;;;;;;0.30;0.30;;;11.70;88.10;;;;;;4954929;28;20427;-63
2024/01/28 13:07:59;;;;;;;0.30;0.30;;;11.80;89.50;;;;;;4955324;28;20801;-64
2024/01/28 13:10:25;;;;;;;0.40;0.40;;;11.80;89.20;;;;;;4955529;29;20179;-61
2024/01/28 13:12:50;;;;;;;0.30;0.20;;;11.80;88.00;;;;;;4955123;29;20331;-64
2024/01/28 13:15:17;;;;;;;0.30;0.30;;;11.80;87.40;;;;;;4954879;29;20211;-64
2024/01/28 13:17:43;;;;;;;0.40;0.40;;;11.80;86.70;;;;;;4954149;29;20195;-64
2024/01/28 13:20:10;;;;;;;0.30;0.30;;;11.80;87.20;;;;;;4955120;28;20418;-65
2024/01/28 13:22:38;;;;;;;0.43;0.43;;;11.90;87.20;;;;;;4955020;28;20909;-66
2024/01/28 13:25:04;;;;;;;0.30;0.30;;;11.90;88.70;;;;;;4954808;28;20415;-65
2024/01/28 13:27:30;;;;;;;0.40;0.40;;;12.00;85.80;;;;;;4955130;28;20517;-63
2024/01/28 13:29:56;;;;;;;0.30;0.30;;;12.00;83.80;;;;;;4955108;28;20565;-65
2024/01/28 13:32:22;;;;;;;0.30;0.30;;;12.00;83.70;;;;;;4954983;29;20584;-63
2024/01/28 13:34:48;;;;;;;0.37;0.37;;;12.00;84.40;;;;;;4954762;28;20186;-66
2024/01/28 13:37:13;;;;;;;0.33;0.33;;;12.10;84.00;;;;;;4955046;29;20510;-64
2024/01/28 13:39:40;;;;;;;0.30;0.30;;;12.10;84.70;;;;;;4954955;29;20627;-65
2024/01/28 13:42:06;;;;;;;0.33;0.33;;;12.10;84.50;;;;;;4954885;29;20207;-65
2024/01/28 13:44:31;;;;;;;0.37;0.37;;;12.10;85.00;;;;;;4954530;29;20410;-63
2024/01/28 13:46:59;;;;;;;0.30;0.30;;;12.10;85.50;;;;;;4955022;29;20206;-64
2024/01/28 13:49:25;;;;;;;0.30;0.30;;;12.20;86.30;;;;;;4955017;28;20209;-65
2024/01/28 13:51:51;;;;;;;0.43;0.43;;;12.20;85.80;;;;;;4955019;28;20397;-65
2024/01/28 13:54:17;;;;;;;0.30;0.30;;;12.20;84.90;;;;;;4957040;28;20458;-63
2024/01/28 13:56:43;;;;;;;0.47;0.47;;;12.20;83.90;;;;;;4958605;28;20909;-64
2024/01/28 13:59:09;;;;;;;0.30;0.30;;;12.30;83.30;;;;;;4958632;29;20518;-66
2024/01/28 14:01:34;;;;;;;0.50;0.50;;;12.30;83.60;;;;;;4958550;28;20501;-63
2024/01/28 14:04:00;;;;;;;0.30;0.20;;;12.30;87.70;;;;;;4958445;29;20190;-65
2024/01/28 14:06:27;;;;;;;0.30;0.30;;;12.30;87.50;;;;;;4957938;29;20290;-64
2024/01/28 14:08:53;;;;;;;0.30;0.30;;;12.30;88.60;;;;;;4958677;28;20234;-65
2024/01/28 14:11:18;;;;;;;0.30;0.30;;;12.20;88.60;;;;;;4958367;29;20415;-65
2024/01/28 14:13:48;;;;;;;0.50;0.50;;;12.20;89.80;;;;;;4958257;29;20187;-66
2024/01/28 14:16:14;;;;;;;0.30;0.30;;;12.20;89.70;;;;;;4958049;28;20211;-65
2024/01/28 14:18:39;;;;;;;0.30;0.30;;;12.20;89.90;;;;;;4957152;29;20462;-63
2024/01/28 14:21:05;;;;;;;0.40;0.40;;;12.10;89.60;;;;;;4958388;29;20857;-63
2024/01/28 14:23:31;;;;;;;0.77;0.77;;;12.20;89.50;;;;;;4958032;29;20187;-64
2024/01/28 14:25:56;;;;;;;0.30;0.23;;;12.10;89.20;;;;;;4956390;29;20203;-66
2024/01/28 14:28:22;;;;;;;0.40;0.40;;;12.10;88.80;;;;;;4958088;29;20180;-64
2024/01/28 14:30:48;;;;;;;0.30;0.30;;;12.10;88.50;;;;;;4956699;29;20278;-64
2024/01/28 14:33:14;;;;;;;0.30;0.30;;;12.10;87.50;;;;;;4958149;28;20180;-64
2024/01/28 14:35:39;;;;;;;0.30;0.30;;;12.20;87.10;;;;;;4957578;28;20192;-64
2024/01/28 14:38:05;;;;;;;0.33;0.33;;;12.10;86.60;;;;;;4957835;29;20762;-64
2024/01/28 14:40:31;;;;;;;0.30;0.30;;;12.10;86.40;;;;;;4957761;29;20259;-63
2024/01/28 14:42:56;;;;;;;0.50;0.50;;;12.10;86.40;;;;;;4958050;28;20589;-65
2024/01/28 14:45:22;;;;;;;0.30;0.30;;;12.10;86.00;;;;;;4957505;29;20199;-64
2024/01/28 14:47:48;;;;;;;0.70;0.70;;;12.10;85.30;;;;;;4957567;28;20203;-64
2024/01/28 14:50:14;;;;;;;0.30;0.30;;;12.10;85.80;;;;;;4957890;28;20429;-64
2024/01/28 14:52:40;;;;;;;0.30;0.30;;;12.10;85.00;;;;;;4959516;28;20514;-63
2024/01/28 14:55:06;;;;;;;0.67;0.67;;;12.20;84.10;;;;;;4963467;28;20419;-65
2024/01/28 14:57:32;;;;;;;0.30;0.20;;;12.20;83.80;;;;;;4957616;28;20415;-64
2024/01/28 14:59:57;;;;;;;0.30;0.30;;;12.20;85.40;;;;;;4958401;28;20474;-64
2024/01/28 15:02:25;;;;;;;0.30;0.30;;;12.20;85.60;;;;;;4957417;28;20183;-64
2024/01/28 15:04:50;;;;;;;0.70;0.63;;;12.20;85.60;;;;;;4956915;28;20539;-65
2024/01/28 15:07:16;;;;;;;0.50;0.50;;;12.20;86.20;;;;;;4957169;29;20825;-65
2024/01/28 15:09:42;;;;;;;0.30;0.30;;;12.10;87.20;;;;;;4957256;29;20209;-64
2024/01/28 15:12:07;;;;;;;0.30;0.30;;;12.10;88.30;;;;;;4957512;28;20187;-64
2024/01/28 15:14:34;;;;;;;0.40;0.40;;;12.10;88.50;;;;;;4957229;29;20190;-62
2024/01/28 15:17:00;;;;;;;0.30;0.30;;;12.00;89.50;;;;;;4957226;29;20210;-66
2024/01/28 15:19:25;;;;;;;0.40;0.40;;;12.00;90.00;;;;;;4957032;29;20450;-65
2024/01/28 15:21:51;;;;;;;0.30;0.20;;;11.90;90.40;;;;;;4957745;29;20566;-64
2024/01/28 15:24:16;;;;;;;0.37;0.37;;;11.90;90.50;;;;;;4955482;29;20265;-63
2024/01/28 15:26:42;;;;;;;0.30;0.30;;;11.80;90.20;;;;;;4957005;29;20295;-65
2024/01/28 15:29:08;;;;;;;0.30;0.30;;;11.80;90.00;;;;;;4957011;29;20183;-64
2024/01/28 15:31:33;;;;;;;0.63;0.63;;;11.70;89.80;;;;;;4956942;29;20182;-64
2024/01/28 15:33:59;;;;;;;0.30;0.30;;;11.60;90.10;;;;;;4956854;29;20586;-66
2024/01/28 15:36:25;;;;;;;0.30;0.20;;;11.60;89.90;;;;;;4955239;29;20238;-65
2024/01/28 15:38:50;;;;;;;0.77;0.77;;;11.50;89.50;;;;;;4956818;28;20206;-65
2024/01/28 15:41:16;;;;;;;0.30;0.30;;;11.50;89.50;;;;;;4956727;29;20461;-64
2024/01/28 15:43:42;;;;;;;0.50;0.50;;;11.40;88.50;;;;;;4956980;29;20215;-65
2024/01/28 15:46:08;;;;;;;0.30;0.30;;;11.40;88.80;;;;;;4956430;29;20960;-66
2024/01/28 15:48:37;;;;;;;0.30;0.30;;;11.40;88.50;;;;;;4956640;29;20182;-66
2024/01/28 15:51:03;;;;;;;0.40;0.40;;;11.40;86.90;;;;;;4956319;28;20394;-64
2024/01/28 15:53:28;;;;;;;0.30;0.20;;;11.40;87.90;;;;;;4956694;28;20806;-64
2024/01/28 15:55:54;;;;;;;0.30;0.30;;;11.40;87.00;;;;;;4956409;29;20202;-63
2024/01/28 15:58:20;;;;;;;0.30;0.20;;;11.30;87.10;;;;;;4956340;29;20190;-65
2024/01/28 16:00:46;;;;;;;0.30;0.30;;;11.30;86.60;;;;;;4956458;28;20413;-65
2024/01/28 16:03:12;;;;;;;0.47;0.47;;;11.20;85.70;;;;;;4956488;29;20749;-64
2024/01/28 16:05:38;;;;;;;0.80;0.50;;;11.10;84.10;;;;;;4954659;29;20205;-65
2024/01/28 16:08:05;;;;;;;0.70;0.50;;;11.10;83.30;;;;;;4956030;28;20237;-65
2024/01/28 16:10:31;;;;;;;0.30;0.30;;;11.00;82.30;;;;;;4956224;28;20219;-66
2024/01/28 16:12:57;;;;;;;0.30;0.30;;;10.90;81.50;;;;;;4956195;29;20209;-64
2024/01/28 16:15:24;;;;;;;0.30;0.30;;;10.80;80.70;;;;;;4955480;28;20248;-65
2024/01/28 16:17:50;;;;;;;0.30;0.30;;;10.70;80.70;;;;;;4955602;28;20190;-64
2024/01/28 16:20:16;;;;;;;0.30;0.20;;;10.60;80.00;;;;;;4955614;28;20417;-65
2024/01/28 16:22:42;;;;;;;0.33;0.33;;;10.50;79.70;;;;;;4954708;29;20656;-64
2024/01/28 16:25:08;;;;;;;0.30;0.30;;;10.50;77.70;;;;;;4955726;29;20440;-63
2024/01/28 16:27:35;;;;;;;0.35;0.35;;;10.40;77.40;;;;;;4955968;29;20191;-65
2024/01/28 16:30:01;;;;;;;0.30;0.30;;;10.40;77.60;;;;;;4955980;28;20173;-64
2024/01/28 16:32:27;;;;;;;0.30;0.30;;;10.40;77.80;;;;;;4956052;28;20268;-63
2024/01/28 16:34:53;;;;;;;0.30;0.30;;;10.30;77.90;;;;;;4955523;29;20452;-63
2024/01/28 16:37:19;;;;;;;0.30;0.30;;;10.20;78.90;;;;;;4955695;28;20193;-63
2024/01/28 16:39:47;;;;;;;0.30;0.30;;;10.10;79.80;;;;;;4955931;28;20218;-65
2024/01/28 16:42:16;;;;;;;0.30;0.30;;;10.00;80.60;;;;;;4955704;28;20165;-62
2024/01/28 16:44:42;;;;;;;0.55;0.55;;;9.90;82.50;;;;;;4955228;28;20497;-64
2024/01/28 16:47:09;;;;;;;0.30;0.20;;;9.80;83.60;;;;;;4955471;29;20188;-66
2024/01/28 16:49:34;;;;;;;0.30;0.30;;;9.60;84.70;;;;;;4955783;28;20195;-64
2024/01/28 16:52:00;;;;;;;0.30;0.30;;;9.50;85.20;;;;;;4955698;28;20635;-65
2024/01/28 16:54:26;;;;;;;0.30;0.30;;;9.40;85.70;;;;;;4955251;28;20177;-65
2024/01/28 16:56:52;;;;;;;0.30;0.30;;;9.30;85.70;;;;;;4973122;28;21000;-63
2024/01/28 16:59:18;;;;;;;0.30;0.30;;;9.20;85.80;;;;;;4973677;28;20298;-65
2024/01/28 17:01:45;;;;;;;0.30;0.30;;;9.10;86.20;;;;;;4973405;28;20794;-63
2024/01/28 17:04:11;;;;;;;0.50;0.50;;;9.00;87.20;;;;;;4973974;28;20172;-63
2024/01/28 17:06:37;;;;;;;0.30;0.30;;;8.90;87.20;;;;;;4973609;28;20212;-67
2024/01/28 17:09:03;;;;;;;0.30;0.30;;;8.80;87.60;;;;;;4973146;28;20791;-65
2024/01/28 17:11:29;;;;;;;0.30;0.30;;;8.70;87.80;;;;;;4978816;28;20184;-66
2024/01/28 17:13:55;;;;;;;0.30;0.30;;;8.60;87.90;;;;;;4992747;28;20511;-66
2024/01/28 17:16:21;;;;;;;0.30;0.30;;;8.60;88.10;;;;;;4991942;28;20202;-66
2024/01/28 17:18:47;;;;;;;0.30;0.30;;;8.50;87.90;;;;;;4990165;28;20286;-66
2024/01/28 17:21:15;;;;;;;0.40;0.40;;;8.40;87.50;;;;;;4986370;28;20187;-63
2024/01/28 17:23:41;;;;;;;0.30;0.30;;;8.40;87.50;;;;;;4974340;28;20255;-65
2024/01/28 17:26:08;;;;;;;0.30;0.30;;;8.30;87.70;;;;;;4973446;28;20196;-67
2024/01/28 17:28:34;;;;;;;0.30;0.28;;;8.20;88.10;;;;;;4973444;28;20516;-64
2024/01/28 17:31:00;;;;;;;0.30;0.30;;;8.20;88.90;;;;;;4973739;28;20184;-63
2024/01/28 17:33:26;;;;;;;0.30;0.30;;;8.10;89.40;;;;;;4974193;28;20183;-62
2024/01/28 17:35:52;;;;;;;0.30;0.30;;;8.00;89.50;;;;;;4973715;28;20227;-64
2024/01/28 17:38:17;;;;;;;0.30;0.30;;;7.90;90.10;;;;;;4973492;28;20258;-61
2024/01/28 17:40:43;;;;;;;0.30;0.30;;;7.80;90.50;;;;;;4974067;28;20491;-64
2024/01/28 17:43:09;;;;;;;0.30;0.30;;;7.60;90.80;;;;;;4974148;28;20172;-64
2024/01/28 17:45:35;;;;;;;0.33;0.33;;;7.50;91.00;;;;;;4973528;28;20202;-63
2024/01/28 17:48:01;;;;;;;0.40;0.40;;;7.40;91.30;;;;;;4974019;28;20407;-66